createdAt,value
2018-06-10T00:00:24.300Z,42.10
2018-06-10T00:03:02.805Z,35.30
2018-06-10T00:05:41.264Z,34.60
2018-06-10T00:08:13.837Z,34.77
2018-06-10T00:10:45.633Z,29.67
2018-06-10T00:13:16.598Z,42.93
2018-06-10T00:15:49.272Z,44.60
2018-06-10T00:18:21.126Z,48.43
2018-06-10T00:20:55.223Z,54.30
2018-06-10T00:23:26.554Z,56.33
2018-06-10T00:25:58.526Z,66.13
2018-06-10T00:28:35.377Z,65.80
2018-06-10T00:31:07.782Z,55.97
2018-06-10T00:33:39.733Z,41.17
2018-06-10T00:36:11.078Z,43.33
2018-06-10T00:38:42.563Z,42.93
2018-06-10T00:41:14.001Z,33.87
2018-06-10T00:43:50.732Z,37.60
2018-06-10T00:46:22.426Z,39.70
2018-06-10T00:48:54.549Z,38.67
2018-06-10T00:51:26.580Z,45.23
2018-06-10T00:54:02.230Z,44.73
2018-06-10T00:56:45.126Z,50.63
2018-06-10T00:59:21.781Z,42.40
2018-06-10T01:01:54.698Z,41.57
2018-06-10T01:04:27.180Z,45.80
2018-06-10T01:07:00.368Z,44.47
2018-06-10T01:09:31.873Z,38.17
2018-06-10T01:12:04.211Z,42.83
2018-06-10T01:14:37.128Z,39.87
2018-06-10T01:17:08.283Z,45.30
2018-06-10T01:19:40.234Z,34.77
2018-06-10T01:22:13.194Z,43.87
2018-06-10T01:24:44.870Z,42.10
2018-06-10T01:27:16.103Z,42.53
2018-06-10T01:29:48.064Z,38.53
2018-06-10T01:32:19.344Z,37.87
2018-06-10T01:34:51.554Z,35.90
2018-06-10T01:37:23.860Z,32.67
2018-06-10T01:39:56.269Z,41.43
2018-06-10T01:42:28.931Z,46.03
2018-06-10T01:45:01.474Z,44.70
2018-06-10T01:47:34.519Z,54.97
2018-06-10T01:50:06.579Z,59.90
2018-06-10T01:52:38.930Z,56.83
2018-06-10T01:55:10.224Z,44.07
2018-06-10T01:57:41.686Z,52.13
2018-06-10T02:00:14.125Z,51.27
2018-06-10T02:02:45.935Z,51.50
2018-06-10T02:05:17.627Z,55.60
2018-06-10T02:07:49.631Z,55.00
2018-06-10T02:10:21.794Z,61.43
2018-06-10T02:12:54.491Z,54.77
2018-06-10T02:15:26.980Z,45.97
2018-06-10T02:17:59.214Z,51.80
2018-06-10T02:20:31.334Z,55.23
2018-06-10T02:23:03.751Z,63.27
2018-06-10T02:25:35.542Z,67.63
2018-06-10T02:28:07.325Z,59.10
2018-06-10T02:30:39.070Z,59.20
2018-06-10T02:33:11.732Z,60.13
2018-06-10T02:35:43.512Z,62.10
2018-06-10T02:38:14.734Z,62.63
2018-06-10T02:40:45.899Z,73.67
2018-06-10T02:43:18.875Z,72.27
2018-06-10T02:45:50.565Z,64.43
2018-06-10T02:48:22.799Z,63.60
2018-06-10T02:50:54.133Z,57.87
2018-06-10T02:53:26.146Z,63.00
2018-06-10T02:55:59.257Z,70.80
2018-06-10T02:58:33.175Z,74.40
2018-06-10T03:01:06.482Z,71.37
2018-06-10T03:03:38.967Z,84.90
2018-06-10T03:06:10.747Z,73.77
2018-06-10T03:08:42.962Z,68.73
2018-06-10T03:11:14.356Z,68.27
2018-06-10T03:13:49.734Z,68.57
2018-06-10T03:16:20.666Z,72.87
2018-06-10T03:18:53.142Z,69.37
2018-06-10T03:21:25.052Z,95.77
2018-06-10T03:23:58.117Z,81.90
2018-06-10T03:26:30.029Z,85.10
2018-06-10T03:29:02.943Z,114.03
2018-06-10T03:31:34.210Z,81.43
2018-06-10T03:34:06.397Z,87.47
2018-06-10T03:36:42.229Z,77.33
2018-06-10T03:39:14.808Z,85.53
2018-06-10T03:41:47.360Z,85.23
2018-06-10T03:44:18.572Z,81.53
2018-06-10T03:46:55.655Z,87.40
2018-06-10T03:49:27.006Z,99.53
2018-06-10T03:51:58.477Z,101.00
2018-06-10T03:54:36.042Z,96.33
2018-06-10T03:57:08.446Z,79.93
2018-06-10T03:59:40.861Z,61.63
2018-06-10T04:02:12.176Z,64.57
2018-06-10T04:04:43.744Z,52.03
2018-06-10T04:07:15.902Z,39.53
2018-06-10T04:09:47.581Z,36.77
2018-06-10T04:12:26.304Z,32.77
2018-06-10T04:14:58.529Z,35.07
2018-06-10T04:17:30.286Z,29.07
2018-06-10T04:20:02.420Z,30.23
2018-06-10T04:22:34.213Z,31.07
2018-06-10T04:25:06.554Z,25.10
2018-06-10T04:27:38.467Z,25.67
2018-06-10T04:30:10.445Z,26.93
2018-06-10T04:32:41.821Z,30.30
2018-06-10T04:35:14.546Z,25.67
2018-06-10T04:37:46.265Z,31.93
2018-06-10T04:40:17.693Z,33.03
2018-06-10T04:42:50.754Z,24.87
2018-06-10T04:45:22.370Z,35.63
2018-06-10T04:47:59.143Z,29.40
2018-06-10T04:50:30.289Z,29.77
2018-06-10T04:53:02.126Z,29.73
2018-06-10T04:55:33.859Z,35.07
2018-06-10T04:58:07.734Z,29.00
2018-06-10T05:00:39.421Z,32.13
2018-06-10T05:03:11.591Z,28.10
2018-06-10T05:05:43.648Z,27.93
2018-06-10T05:08:14.969Z,28.47
2018-06-10T05:10:46.808Z,30.33
2018-06-10T05:13:18.144Z,25.87
2018-06-10T05:15:53.627Z,25.37
2018-06-10T05:18:26.418Z,29.37
2018-06-10T05:21:02.763Z,25.07
2018-06-10T05:23:34.629Z,26.20
2018-06-10T05:26:07.265Z,27.43
2018-06-10T05:28:39.780Z,27.73
2018-06-10T05:31:13.095Z,28.83
2018-06-10T05:33:44.846Z,28.17
2018-06-10T05:36:16.893Z,23.17
2018-06-10T05:38:48.132Z,26.47
2018-06-10T05:41:19.872Z,22.90
2018-06-10T05:43:52.342Z,26.50
2018-06-10T05:46:25.151Z,24.03
2018-06-10T05:48:56.740Z,19.80
2018-06-10T05:51:28.117Z,26.30
2018-06-10T05:53:59.304Z,27.47
2018-06-10T05:56:30.954Z,24.83
2018-06-10T05:59:04.167Z,24.07
2018-06-10T06:01:35.600Z,25.00
2018-06-10T06:04:07.456Z,27.70
2018-06-10T06:06:41.679Z,23.17
2018-06-10T06:09:14.579Z,24.10
2018-06-10T06:11:46.720Z,24.77
2018-06-10T06:14:18.282Z,22.90
2018-06-10T06:16:50.621Z,24.83
2018-06-10T06:19:22.121Z,26.40
2018-06-10T06:21:54.451Z,27.50
2018-06-10T06:24:26.009Z,26.43
2018-06-10T06:26:58.580Z,24.50
2018-06-10T06:29:30.959Z,26.30
2018-06-10T06:32:04.320Z,26.10
2018-06-10T06:34:36.303Z,23.83
2018-06-10T06:37:09.402Z,24.23
2018-06-10T06:39:42.244Z,22.73
2018-06-10T06:42:15.629Z,24.47
2018-06-10T06:44:49.210Z,23.57
2018-06-10T06:47:21.910Z,26.87
2018-06-10T06:49:54.222Z,26.20
2018-06-10T06:52:27.312Z,24.57
2018-06-10T06:55:01.172Z,23.27
2018-06-10T06:57:34.484Z,26.23
2018-06-10T07:00:07.903Z,29.90
2018-06-10T07:02:42.258Z,30.20
2018-06-10T07:05:16.813Z,31.73
2018-06-10T07:07:53.183Z,32.17
2018-06-10T07:10:27.618Z,36.33
2018-06-10T07:13:00.351Z,35.77
2018-06-10T07:15:39.299Z,32.43
2018-06-10T07:18:13.632Z,33.57
2018-06-10T07:20:46.636Z,38.50
2018-06-10T07:23:21.680Z,39.33
2018-06-10T07:25:55.561Z,40.23
2018-06-10T07:28:28.819Z,39.33
2018-06-10T07:31:01.689Z,43.37
2018-06-10T07:33:32.839Z,41.00
2018-06-10T07:36:03.845Z,42.53
2018-06-10T07:38:35.146Z,49.23
2018-06-10T07:41:10.013Z,46.67
2018-06-10T07:43:41.507Z,44.50
2018-06-10T07:46:13.537Z,42.40
2018-06-10T07:48:44.431Z,48.23
2018-06-10T07:51:16.527Z,49.20
2018-06-10T07:53:47.469Z,44.57
2018-06-10T07:56:19.532Z,50.53
2018-06-10T07:58:56.225Z,43.60
2018-06-10T08:01:27.541Z,53.73
2018-06-10T08:03:58.377Z,54.03
2018-06-10T08:06:28.648Z,59.30
2018-06-10T08:08:58.852Z,54.97
2018-06-10T08:11:34.397Z,49.33
2018-06-10T08:14:09.276Z,56.53
2018-06-10T08:16:39.590Z,60.10
2018-06-10T08:19:10.196Z,53.80
2018-06-10T08:21:40.582Z,61.97
2018-06-10T08:24:10.883Z,54.87
2018-06-10T08:26:45.847Z,58.80
2018-06-10T08:29:19.366Z,62.00
2018-06-10T08:31:50.200Z,61.33
2018-06-10T08:34:25.515Z,66.53
2018-06-10T08:36:56.854Z,68.53
2018-06-10T08:39:27.736Z,75.80
2018-06-10T08:41:58.196Z,68.70
2018-06-10T08:44:32.496Z,73.73
2018-06-10T08:47:12.934Z,82.17
2018-06-10T08:49:43.526Z,84.80
2018-06-10T08:52:14.771Z,86.30
2018-06-10T08:54:49.095Z,91.90
2018-06-10T08:57:21.190Z,83.03
2018-06-10T08:59:52.298Z,97.53
2018-06-10T09:02:23.307Z,93.13
2018-06-10T09:04:54.091Z,101.97
2018-06-10T09:07:24.739Z,88.80
2018-06-10T09:09:54.973Z,99.07
2018-06-10T09:12:27.076Z,102.03
2018-06-10T09:14:58.799Z,98.17
2018-06-10T09:17:30.925Z,98.17
2018-06-10T09:20:01.228Z,98.30
2018-06-10T09:22:31.999Z,97.97
2018-06-10T09:25:02.413Z,98.30
2018-06-10T09:27:32.717Z,94.97
2018-06-10T09:30:02.645Z,99.70
2018-06-10T09:32:32.946Z,88.83
2018-06-10T09:35:03.101Z,91.40
2018-06-10T09:37:32.912Z,93.17
2018-06-10T09:40:03.056Z,92.00
2018-06-10T09:42:34.715Z,101.20
2018-06-10T09:45:05.208Z,90.90
2018-06-10T09:47:34.896Z,95.23
2018-06-10T09:50:05.879Z,95.60
2018-06-10T09:52:36.373Z,94.63
2018-06-10T09:55:07.925Z,96.53
2018-06-10T09:57:39.523Z,94.90
2018-06-10T10:00:10.441Z,85.80
2018-06-10T10:02:40.866Z,101.97
2018-06-10T10:05:12.664Z,89.53
2018-06-10T10:07:42.940Z,87.83
2018-06-10T10:10:19.649Z,102.63
2018-06-10T10:12:49.837Z,90.43
2018-06-10T10:15:28.629Z,89.93
2018-06-10T10:18:03.094Z,85.87
2018-06-10T10:20:34.394Z,82.07
2018-06-10T10:23:05.670Z,84.30
2018-06-10T10:25:40.462Z,85.60
2018-06-10T10:28:10.307Z,75.13
2018-06-10T10:30:40.523Z,86.60
2018-06-10T10:33:10.768Z,77.60
2018-06-10T10:35:41.261Z,78.83
2018-06-10T10:38:12.800Z,85.33
2018-06-10T10:40:44.282Z,81.27
2018-06-10T10:43:18.644Z,76.60
2018-06-10T10:48:42.952Z,76.37
2018-06-10T10:51:14.551Z,71.30
2018-06-10T10:53:45.485Z,67.37
2018-06-10T10:56:20.000Z,69.47
2018-06-10T10:58:50.078Z,69.07
2018-06-10T11:01:21.505Z,64.82
2018-06-10T11:03:56.028Z,72.35
2018-06-10T11:06:28.885Z,69.10
2018-06-10T11:09:00.278Z,67.97
2018-06-10T11:11:31.501Z,69.13
2018-06-10T11:14:03.887Z,68.00
2018-06-10T11:16:35.409Z,64.07
2018-06-10T11:19:12.768Z,67.77
2018-06-10T11:21:44.670Z,64.87
2018-06-10T11:24:18.079Z,67.03
2018-06-10T11:26:50.250Z,62.33
2018-06-10T11:29:21.981Z,59.18
2018-06-10T11:31:53.472Z,62.25
2018-06-10T11:34:23.797Z,59.33
2018-06-10T11:36:59.012Z,48.20
2018-06-10T11:39:30.168Z,55.88
2018-06-10T11:42:01.400Z,49.73
2018-06-10T11:44:32.952Z,47.23
2018-06-10T11:47:03.395Z,46.70
2018-06-10T11:49:34.750Z,44.25
2018-06-10T11:52:09.312Z,44.08
2018-06-10T11:54:39.986Z,39.38
2018-06-10T11:57:11.085Z,35.15
2018-06-10T12:00:03.859Z,40.50
2018-06-10T12:02:35.528Z,34.58
2018-06-10T12:05:08.936Z,40.55
2018-06-10T12:07:39.320Z,41.48
2018-06-10T12:10:14.094Z,37.33
2018-06-10T12:12:45.574Z,41.58
2018-06-10T12:15:18.503Z,34.00
2018-06-10T12:17:49.771Z,36.70
2018-06-10T12:20:20.202Z,35.95
2018-06-10T12:22:50.789Z,34.78
2018-06-10T12:25:22.760Z,32.13
2018-06-10T12:27:53.638Z,29.00
2018-06-10T12:30:25.128Z,26.77
2018-06-10T12:32:59.748Z,26.37
2018-06-10T12:35:30.168Z,23.22
2018-06-10T12:38:05.226Z,26.65
2018-06-10T12:40:37.829Z,26.68
2018-06-10T12:43:10.611Z,24.60
2018-06-10T12:45:41.193Z,25.32
2018-06-10T12:48:11.596Z,22.80
2018-06-10T12:50:43.727Z,20.72
2018-06-10T12:53:14.155Z,20.12
2018-06-10T12:55:44.948Z,18.92
2018-06-10T12:58:16.420Z,21.93
2018-06-10T13:00:48.641Z,18.67
2018-06-10T13:03:20.525Z,16.55
2018-06-10T13:05:51.156Z,17.75
2018-06-10T13:08:22.117Z,17.67
2018-06-10T13:10:53.146Z,22.42
2018-06-10T13:13:29.149Z,20.60
2018-06-10T13:16:00.505Z,21.77
2018-06-10T13:18:33.042Z,17.10
2018-06-10T13:21:04.258Z,16.23
2018-06-10T13:23:37.873Z,15.43
2018-06-10T13:26:09.635Z,15.45
2018-06-10T13:28:41.177Z,15.53
2018-06-10T13:32:16.912Z,16.95
2018-06-10T13:34:48.414Z,15.53
2018-06-10T13:37:21.490Z,13.72
2018-06-10T13:39:53.410Z,17.73
2018-06-10T13:42:25.035Z,16.15
2018-06-10T13:44:55.813Z,13.85
2018-06-10T13:47:27.492Z,14.95
2018-06-10T13:50:03.197Z,13.93
2018-06-10T13:52:33.977Z,14.75
2018-06-10T13:55:04.983Z,13.83
2018-06-10T13:57:38.715Z,17.07
2018-06-10T14:00:09.484Z,18.40
2018-06-10T14:02:41.246Z,18.25
2018-06-10T14:05:17.401Z,18.37
2018-06-10T14:07:50.165Z,19.62
2018-06-10T14:10:22.020Z,17.82
2018-06-10T14:12:54.481Z,17.32
2018-06-10T14:15:25.265Z,16.73
2018-06-10T14:17:56.335Z,16.32
2018-06-10T14:20:29.022Z,14.33
2018-06-10T14:23:02.485Z,14.85
2018-06-10T14:25:33.981Z,17.02
2018-06-10T14:28:06.117Z,19.20
2018-06-10T14:30:42.320Z,17.17
2018-06-10T14:33:14.108Z,17.35
2018-06-10T14:35:44.499Z,15.98
2018-06-10T14:38:14.305Z,13.28
2018-06-10T14:40:48.349Z,15.03
2018-06-10T14:43:21.605Z,13.60
2018-06-10T14:45:53.072Z,11.57
2018-06-10T14:48:22.850Z,15.35
2018-06-10T14:50:53.704Z,14.58
2018-06-10T14:53:23.858Z,15.20
2018-06-10T14:55:54.348Z,13.53
2018-06-10T14:58:24.057Z,11.43
2018-06-10T15:00:55.741Z,13.25
2018-06-10T15:03:27.793Z,12.70
2018-06-10T15:05:57.562Z,12.60
2018-06-10T15:08:27.410Z,12.05
2018-06-10T15:11:00.010Z,14.58
2018-06-10T15:13:30.334Z,11.70
2018-06-10T15:16:01.777Z,15.20
2018-06-10T15:18:33.593Z,10.65
2018-06-10T15:21:03.557Z,10.88
2018-06-10T15:23:33.591Z,10.63
2018-06-10T15:26:04.601Z,12.20
2018-06-10T15:28:39.700Z,12.10
2018-06-10T15:31:10.377Z,13.58
2018-06-10T15:33:43.661Z,9.43
2018-06-10T15:36:14.256Z,11.93
2018-06-10T15:38:45.399Z,12.43
2018-06-10T15:41:15.828Z,12.73
2018-06-10T15:43:46.104Z,13.03
2018-06-10T15:46:21.837Z,11.45
2018-06-10T15:48:52.765Z,11.97
2018-06-10T15:51:24.016Z,13.48
2018-06-10T15:53:55.527Z,14.33
2018-06-10T15:56:26.776Z,14.38
2018-06-10T15:58:57.908Z,16.70
2018-06-10T16:01:28.890Z,14.85
2018-06-10T16:03:58.597Z,12.25
2018-06-10T16:06:31.485Z,12.60
2018-06-10T16:09:03.234Z,10.50
2018-06-10T16:11:32.842Z,12.30
2018-06-10T16:14:04.099Z,11.00
2018-06-10T16:16:35.033Z,12.53
2018-06-10T16:19:06.799Z,11.45
2018-06-10T16:21:36.727Z,11.00
2018-06-10T16:24:06.918Z,11.28
2018-06-10T16:26:38.727Z,11.68
2018-06-10T16:29:08.774Z,13.00
2018-06-10T16:31:42.218Z,14.80
2018-06-10T16:34:13.164Z,13.08
2018-06-10T16:36:43.663Z,11.10
2018-06-10T16:39:13.700Z,14.07
2018-06-10T16:41:44.010Z,12.00
2018-06-10T16:47:03.448Z,10.88
2018-06-10T16:49:34.664Z,10.32
2018-06-10T16:52:05.890Z,12.00
2018-06-10T16:54:37.204Z,12.43
2018-06-10T16:57:08.372Z,12.80
2018-06-10T16:59:39.724Z,9.43
2018-06-10T17:02:10.691Z,10.98
2018-06-10T17:04:41.693Z,14.13
2018-06-10T17:07:14.830Z,13.03
2018-06-10T17:09:46.287Z,11.90
2018-06-10T17:12:17.757Z,13.73
2018-06-10T17:14:49.841Z,11.60
2018-06-10T17:17:21.569Z,12.17
2018-06-10T17:19:56.904Z,13.70
2018-06-10T17:22:30.972Z,13.73
2018-06-10T17:25:02.865Z,11.50
2018-06-10T17:27:37.468Z,11.07
2018-06-10T17:30:09.112Z,10.97
2018-06-10T17:32:40.996Z,10.20
2018-06-10T17:35:12.834Z,9.80
2018-06-10T17:37:45.458Z,12.20
2018-06-10T17:40:17.717Z,10.93
2018-06-10T17:42:51.556Z,12.00
2018-06-10T17:45:23.349Z,15.60
2018-06-10T17:47:56.967Z,10.93
2018-06-10T17:50:42.136Z,10.33
2018-06-10T17:53:15.054Z,13.53
2018-06-10T17:55:51.516Z,12.50
2018-06-10T17:58:23.698Z,11.43
2018-06-10T18:00:55.885Z,11.47
2018-06-10T18:03:28.584Z,14.20
2018-06-10T18:06:00.781Z,10.17
2018-06-10T18:08:34.499Z,12.47
2018-06-10T18:11:06.492Z,14.37
2018-06-10T18:13:38.856Z,12.57
2018-06-10T18:16:11.042Z,14.40
2018-06-10T18:18:45.009Z,12.27
2018-06-10T18:21:17.476Z,13.27
2018-06-10T18:23:50.291Z,14.30
2018-06-10T18:26:23.128Z,11.43
2018-06-10T18:28:55.970Z,13.30
2018-06-10T18:31:28.332Z,11.50
2018-06-10T18:34:00.543Z,10.50
2018-06-10T18:36:33.119Z,11.20
2018-06-10T18:39:08.201Z,10.03
2018-06-10T18:41:41.473Z,13.67
2018-06-10T18:44:13.859Z,11.10
2018-06-10T18:46:46.387Z,12.33
2018-06-10T18:49:18.464Z,9.50
2018-06-10T18:51:53.337Z,11.00
2018-06-10T18:54:28.766Z,11.80
2018-06-10T18:57:02.337Z,11.80
2018-06-10T18:59:34.354Z,10.27
2018-06-10T19:02:12.664Z,11.87
2018-06-10T19:04:46.984Z,13.13
2018-06-10T19:07:21.237Z,12.13
2018-06-10T19:09:55.474Z,12.13
2018-06-10T19:12:29.384Z,13.23
2018-06-10T19:15:01.748Z,11.20
2018-06-10T19:17:35.031Z,13.23
2018-06-10T19:20:07.716Z,13.63
2018-06-10T19:22:54.147Z,13.03
2018-06-10T19:25:30.916Z,10.57
2018-06-10T19:28:09.883Z,10.77
2018-06-10T19:30:50.094Z,12.50
2018-06-10T19:33:23.064Z,13.43
2018-06-10T19:35:58.629Z,13.00
2018-06-10T19:38:32.660Z,12.63
2018-06-10T19:41:10.547Z,13.00
2018-06-10T19:43:43.929Z,11.23
2018-06-10T19:46:17.839Z,13.87
2018-06-10T19:48:53.113Z,12.90
2018-06-10T19:51:27.410Z,13.43
2018-06-10T19:56:59.305Z,12.47
2018-06-10T19:59:36.073Z,15.00
2018-06-10T20:02:08.958Z,15.20
2018-06-10T20:04:45.650Z,12.63
2018-06-10T20:07:19.730Z,15.37
2018-06-10T20:09:53.538Z,13.30
2018-06-10T20:12:28.792Z,13.27
2018-06-10T20:15:02.322Z,19.37
2018-06-10T20:17:43.871Z,12.13
2018-06-10T20:20:16.950Z,14.33
2018-06-10T20:22:50.390Z,12.97
2018-06-10T20:25:27.148Z,15.37
2018-06-10T20:28:04.201Z,16.43
2018-06-10T20:30:38.931Z,15.47
2018-06-10T20:33:13.917Z,16.40
2018-06-10T20:35:47.286Z,18.37
2018-06-10T20:38:20.271Z,15.53
2018-06-10T20:41:01.746Z,16.43
2018-06-10T20:43:39.485Z,17.27
2018-06-10T20:46:19.530Z,17.43
2018-06-10T20:49:04.267Z,17.07
2018-06-10T20:51:45.999Z,15.67
2018-06-10T20:54:25.370Z,18.63
2018-06-10T20:57:03.938Z,16.53
2018-06-10T20:59:46.513Z,19.10
2018-06-10T21:02:29.939Z,16.27
2018-06-10T21:08:10.461Z,19.13
2018-06-10T21:10:44.763Z,21.87
2018-06-10T21:13:17.909Z,18.60
2018-06-10T21:15:51.353Z,21.03
2018-06-10T21:18:26.709Z,17.53
2018-06-10T21:20:59.405Z,18.73
2018-06-10T21:23:31.752Z,21.40
2018-06-10T21:26:07.129Z,18.73
2018-06-10T21:28:41.071Z,18.57
2018-06-10T21:31:20.423Z,18.63
2018-06-10T21:33:53.842Z,20.57
2018-06-10T21:36:28.371Z,22.27
2018-06-10T21:39:04.894Z,18.93
2018-06-10T21:41:39.285Z,21.97
2018-06-10T21:44:11.624Z,18.53
2018-06-10T21:46:45.757Z,20.90
2018-06-10T21:49:18.387Z,21.23
2018-06-10T21:51:51.599Z,20.10
2018-06-10T21:54:24.957Z,25.47
2018-06-10T21:57:00.703Z,24.13
2018-06-10T22:02:25.904Z,25.13
2018-06-10T22:05:00.537Z,23.67
2018-06-10T22:07:33.958Z,26.77
2018-06-10T22:10:07.166Z,21.70
2018-06-10T22:12:40.201Z,25.00
2018-06-10T22:15:13.305Z,26.93
2018-06-10T22:17:45.483Z,25.90
2018-06-10T22:20:17.995Z,29.43
2018-06-10T22:22:50.475Z,22.13
2018-06-10T22:25:24.868Z,22.87
2018-06-10T22:27:58.481Z,20.17
2018-06-10T22:30:30.224Z,23.27
2018-06-10T22:33:04.151Z,30.03
2018-06-10T22:35:37.095Z,24.23
2018-06-10T22:38:10.740Z,22.50
2018-06-10T22:40:43.462Z,24.30
2018-06-10T22:43:16.426Z,23.20
2018-06-10T22:45:56.125Z,27.23
2018-06-10T22:48:35.678Z,26.50
2018-06-10T22:51:13.943Z,24.30
2018-06-10T22:54:31.192Z,21.17
2018-06-10T22:57:14.524Z,27.47
2018-06-10T22:59:56.386Z,28.83
2018-06-10T23:02:40.343Z,26.47
2018-06-10T23:05:24.729Z,23.97
2018-06-10T23:08:00.782Z,26.50
2018-06-10T23:10:33.126Z,24.00
2018-06-10T23:13:09.359Z,26.73
2018-06-10T23:15:42.459Z,23.13
2018-06-10T23:18:15.323Z,24.40
2018-06-10T23:20:47.612Z,22.33
2018-06-10T23:23:21.494Z,25.57
2018-06-10T23:25:55.646Z,26.50
2018-06-10T23:28:28.854Z,25.30
2018-06-10T23:31:01.951Z,28.33
2018-06-10T23:33:34.895Z,25.07
2018-06-10T23:36:08.206Z,29.50
2018-06-10T23:38:41.636Z,23.53
2018-06-10T23:41:23.272Z,24.97
2018-06-10T23:43:56.442Z,26.73
2018-06-10T23:46:29.064Z,26.87
2018-06-10T23:51:55.005Z,23.97
2018-06-10T23:54:28.007Z,29.07
2018-06-10T23:57:00.236Z,28.60
2018-06-10T23:59:32.764Z,23.80
